sensor_id;sensor_type;location;lat;lon;timestamp;P1;durP1;ratioP1;P2;durP2;ratioP2
34200;SDS011;20469;55.638;37.670;2023-12-29T00:02:29;3.95;;;2.50;;
34200;SDS011;20469;55.638;37.670;2023-12-29T00:04:57;3.17;;;2.45;;
34200;SDS011;20469;55.638;37.670;2023-12-29T00:07:25;3.20;;;2.42;;
34200;SDS011;20469;55.638;37.670;2023-12-29T00:09:53;3.83;;;2.92;;
34200;SDS011;20469;55.638;37.670;2023-12-29T00:12:21;3.20;;;2.67;;
34200;SDS011;20469;55.638;37.670;2023-12-29T00:14:49;4.43;;;2.40;;
34200;SDS011;20469;55.638;37.670;2023-12-29T00:17:17;3.47;;;2.42;;
34200;SDS011;20469;55.638;37.670;2023-12-29T00:19:46;4.15;;;2.75;;
34200;SDS011;20469;55.638;37.670;2023-12-29T00:22:14;3.90;;;2.78;;
34200;SDS011;20469;55.638;37.670;2023-12-29T00:24:41;3.75;;;2.53;;
34200;SDS011;20469;55.638;37.670;2023-12-29T00:27:10;4.10;;;2.72;;
34200;SDS011;20469;55.638;37.670;2023-12-29T00:29:38;3.88;;;2.75;;
34200;SDS011;20469;55.638;37.670;2023-12-29T00:32:06;4.05;;;3.05;;
34200;SDS011;20469;55.638;37.670;2023-12-29T00:34:34;4.57;;;2.92;;
34200;SDS011;20469;55.638;37.670;2023-12-29T00:37:04;4.40;;;2.85;;
34200;SDS011;20469;55.638;37.670;2023-12-29T00:39:33;4.43;;;3.05;;
34200;SDS011;20469;55.638;37.670;2023-12-29T00:44:33;3.97;;;2.80;;
34200;SDS011;20469;55.638;37.670;2023-12-29T00:47:05;3.50;;;2.72;;
34200;SDS011;20469;55.638;37.670;2023-12-29T00:49:33;3.53;;;2.80;;
34200;SDS011;20469;55.638;37.670;2023-12-29T00:52:00;3.05;;;2.42;;
34200;SDS011;20469;55.638;37.670;2023-12-29T00:54:29;3.22;;;2.25;;
34200;SDS011;20469;55.638;37.670;2023-12-29T00:56:58;3.47;;;2.78;;
34200;SDS011;20469;55.638;37.670;2023-12-29T00:59:25;4.60;;;3.10;;
34200;SDS011;20469;55.638;37.670;2023-12-29T01:01:53;4.13;;;2.95;;
34200;SDS011;20469;55.638;37.670;2023-12-29T01:04:21;4.15;;;2.50;;
34200;SDS011;20469;55.638;37.670;2023-12-29T01:06:50;4.13;;;3.20;;
34200;SDS011;20469;55.638;37.670;2023-12-29T01:09:17;3.70;;;2.80;;
34200;SDS011;20469;55.638;37.670;2023-12-29T01:11:45;4.05;;;2.80;;
34200;SDS011;20469;55.638;37.670;2023-12-29T01:14:13;4.03;;;2.88;;
34200;SDS011;20469;55.638;37.670;2023-12-29T01:16:41;3.05;;;2.42;;
34200;SDS011;20469;55.638;37.670;2023-12-29T01:19:09;3.70;;;2.63;;
34200;SDS011;20469;55.638;37.670;2023-12-29T01:21:37;4.47;;;3.08;;
34200;SDS011;20469;55.638;37.670;2023-12-29T01:24:06;5.40;;;2.95;;
34200;SDS011;20469;55.638;37.670;2023-12-29T01:26:37;3.42;;;2.65;;
34200;SDS011;20469;55.638;37.670;2023-12-29T01:29:05;3.80;;;2.92;;
34200;SDS011;20469;55.638;37.670;2023-12-29T01:31:33;2.83;;;2.50;;
34200;SDS011;20469;55.638;37.670;2023-12-29T01:34:01;3.50;;;2.65;;
34200;SDS011;20469;55.638;37.670;2023-12-29T01:36:29;4.43;;;2.92;;
34200;SDS011;20469;55.638;37.670;2023-12-29T01:38:57;4.45;;;2.60;;
34200;SDS011;20469;55.638;37.670;2023-12-29T01:41:25;3.20;;;2.40;;
34200;SDS011;20469;55.638;37.670;2023-12-29T01:46:25;4.47;;;2.70;;
34200;SDS011;20469;55.638;37.670;2023-12-29T01:48:54;3.60;;;2.50;;
34200;SDS011;20469;55.638;37.670;2023-12-29T01:51:23;3.63;;;2.55;;
34200;SDS011;20469;55.638;37.670;2023-12-29T01:53:52;3.13;;;2.53;;
34200;SDS011;20469;55.638;37.670;2023-12-29T01:56:21;3.78;;;2.30;;
34200;SDS011;20469;55.638;37.670;2023-12-29T01:58:49;3.50;;;2.30;;
34200;SDS011;20469;55.638;37.670;2023-12-29T02:01:17;3.33;;;2.30;;
34200;SDS011;20469;55.638;37.670;2023-12-29T02:03:47;3.60;;;1.95;;
34200;SDS011;20469;55.638;37.670;2023-12-29T02:06:15;3.10;;;1.90;;
34200;SDS011;20469;55.638;37.670;2023-12-29T02:08:43;2.42;;;2.00;;
34200;SDS011;20469;55.638;37.670;2023-12-29T02:11:12;3.53;;;2.45;;
34200;SDS011;20469;55.638;37.670;2023-12-29T02:13:40;2.78;;;2.15;;
34200;SDS011;20469;55.638;37.670;2023-12-29T02:16:18;2.95;;;2.20;;
34200;SDS011;20469;55.638;37.670;2023-12-29T02:18:47;3.95;;;2.80;;
34200;SDS011;20469;55.638;37.670;2023-12-29T02:21:16;3.97;;;2.80;;
34200;SDS011;20469;55.638;37.670;2023-12-29T02:23:44;3.88;;;2.63;;
34200;SDS011;20469;55.638;37.670;2023-12-29T02:26:12;4.13;;;3.20;;
34200;SDS011;20469;55.638;37.670;2023-12-29T02:28:43;4.20;;;3.00;;
34200;SDS011;20469;55.638;37.670;2023-12-29T02:31:15;3.70;;;2.92;;
34200;SDS011;20469;55.638;37.670;2023-12-29T02:33:44;3.97;;;3.38;;
34200;SDS011;20469;55.638;37.670;2023-12-29T02:36:13;3.78;;;2.97;;
34200;SDS011;20469;55.638;37.670;2023-12-29T02:38:41;5.22;;;3.20;;
34200;SDS011;20469;55.638;37.670;2023-12-29T02:41:09;4.10;;;3.00;;
34200;SDS011;20469;55.638;37.670;2023-12-29T02:43:40;3.95;;;2.90;;
34200;SDS011;20469;55.638;37.670;2023-12-29T02:46:08;5.00;;;2.88;;
34200;SDS011;20469;55.638;37.670;2023-12-29T02:48:36;3.83;;;2.28;;
34200;SDS011;20469;55.638;37.670;2023-12-29T02:51:04;4.03;;;2.70;;
34200;SDS011;20469;55.638;37.670;2023-12-29T02:53:32;3.55;;;2.63;;
34200;SDS011;20469;55.638;37.670;2023-12-29T02:56:00;4.40;;;2.97;;
34200;SDS011;20469;55.638;37.670;2023-12-29T02:58:29;3.92;;;2.90;;
34200;SDS011;20469;55.638;37.670;2023-12-29T03:00:56;4.07;;;2.60;;
34200;SDS011;20469;55.638;37.670;2023-12-29T03:03:27;3.97;;;2.78;;
34200;SDS011;20469;55.638;37.670;2023-12-29T03:06:02;3.58;;;2.63;;
34200;SDS011;20469;55.638;37.670;2023-12-29T03:08:30;5.25;;;2.92;;
34200;SDS011;20469;55.638;37.670;2023-12-29T03:10:59;3.70;;;2.72;;
34200;SDS011;20469;55.638;37.670;2023-12-29T03:13:27;4.03;;;3.40;;
34200;SDS011;20469;55.638;37.670;2023-12-29T03:15:55;4.07;;;3.20;;
34200;SDS011;20469;55.638;37.670;2023-12-29T03:18:23;4.65;;;3.15;;
34200;SDS011;20469;55.638;37.670;2023-12-29T03:20:51;5.05;;;3.28;;
34200;SDS011;20469;55.638;37.670;2023-12-29T03:23:18;6.40;;;3.08;;
34200;SDS011;20469;55.638;37.670;2023-12-29T03:25:46;3.97;;;3.20;;
34200;SDS011;20469;55.638;37.670;2023-12-29T03:28:14;4.97;;;3.03;;
34200;SDS011;20469;55.638;37.670;2023-12-29T03:30:42;5.90;;;3.03;;
34200;SDS011;20469;55.638;37.670;2023-12-29T03:33:11;4.85;;;2.97;;
34200;SDS011;20469;55.638;37.670;2023-12-29T03:35:39;5.40;;;3.17;;
34200;SDS011;20469;55.638;37.670;2023-12-29T03:38:08;5.10;;;3.55;;
34200;SDS011;20469;55.638;37.670;2023-12-29T03:40:35;6.70;;;3.42;;
34200;SDS011;20469;55.638;37.670;2023-12-29T03:43:03;4.95;;;2.97;;
34200;SDS011;20469;55.638;37.670;2023-12-29T03:45:31;6.30;;;3.45;;
34200;SDS011;20469;55.638;37.670;2023-12-29T03:47:59;6.80;;;3.67;;
34200;SDS011;20469;55.638;37.670;2023-12-29T03:50:29;4.97;;;3.20;;
34200;SDS011;20469;55.638;37.670;2023-12-29T03:52:57;5.95;;;3.63;;
34200;SDS011;20469;55.638;37.670;2023-12-29T03:55:24;5.00;;;3.40;;
34200;SDS011;20469;55.638;37.670;2023-12-29T03:57:53;5.18;;;3.78;;
34200;SDS011;20469;55.638;37.670;2023-12-29T04:00:20;5.40;;;3.85;;
34200;SDS011;20469;55.638;37.670;2023-12-29T04:02:48;6.68;;;4.30;;
34200;SDS011;20469;55.638;37.670;2023-12-29T04:05:16;5.60;;;3.70;;
34200;SDS011;20469;55.638;37.670;2023-12-29T04:07:44;5.65;;;3.72;;
34200;SDS011;20469;55.638;37.670;2023-12-29T04:10:12;6.20;;;3.42;;
34200;SDS011;20469;55.638;37.670;2023-12-29T04:12:40;6.15;;;3.42;;
34200;SDS011;20469;55.638;37.670;2023-12-29T04:15:08;6.90;;;4.10;;
34200;SDS011;20469;55.638;37.670;2023-12-29T04:17:38;6.65;;;4.18;;
34200;SDS011;20469;55.638;37.670;2023-12-29T04:20:06;5.75;;;3.90;;
34200;SDS011;20469;55.638;37.670;2023-12-29T04:22:34;5.72;;;4.07;;
34200;SDS011;20469;55.638;37.670;2023-12-29T04:25:02;7.78;;;4.65;;
34200;SDS011;20469;55.638;37.670;2023-12-29T04:27:31;7.15;;;4.03;;
34200;SDS011;20469;55.638;37.670;2023-12-29T04:30:00;6.63;;;4.43;;
34200;SDS011;20469;55.638;37.670;2023-12-29T04:32:30;6.35;;;4.50;;
34200;SDS011;20469;55.638;37.670;2023-12-29T04:34:58;6.78;;;4.53;;
34200;SDS011;20469;55.638;37.670;2023-12-29T04:37:26;8.05;;;5.13;;
34200;SDS011;20469;55.638;37.670;2023-12-29T04:39:53;7.35;;;4.78;;
34200;SDS011;20469;55.638;37.670;2023-12-29T04:42:21;6.95;;;4.20;;
34200;SDS011;20469;55.638;37.670;2023-12-29T04:44:49;6.30;;;4.25;;
34200;SDS011;20469;55.638;37.670;2023-12-29T04:47:18;8.57;;;5.15;;
34200;SDS011;20469;55.638;37.670;2023-12-29T04:49:46;8.73;;;4.45;;
34200;SDS011;20469;55.638;37.670;2023-12-29T04:52:14;6.88;;;5.00;;
34200;SDS011;20469;55.638;37.670;2023-12-29T04:54:41;7.40;;;4.75;;
34200;SDS011;20469;55.638;37.670;2023-12-29T04:57:11;7.80;;;4.43;;
34200;SDS011;20469;55.638;37.670;2023-12-29T04:59:39;7.97;;;4.57;;
34200;SDS011;20469;55.638;37.670;2023-12-29T05:02:07;8.70;;;5.13;;
34200;SDS011;20469;55.638;37.670;2023-12-29T05:04:35;10.07;;;5.57;;
34200;SDS011;20469;55.638;37.670;2023-12-29T05:07:05;8.25;;;4.85;;
34200;SDS011;20469;55.638;37.670;2023-12-29T05:09:34;7.65;;;4.65;;
34200;SDS011;20469;55.638;37.670;2023-12-29T05:12:01;7.10;;;4.75;;
34200;SDS011;20469;55.638;37.670;2023-12-29T05:14:29;9.35;;;5.43;;
34200;SDS011;20469;55.638;37.670;2023-12-29T05:16:57;7.75;;;5.05;;
34200;SDS011;20469;55.638;37.670;2023-12-29T05:19:25;7.20;;;5.03;;
34200;SDS011;20469;55.638;37.670;2023-12-29T05:21:53;8.48;;;5.07;;
34200;SDS011;20469;55.638;37.670;2023-12-29T05:24:21;10.98;;;5.35;;
34200;SDS011;20469;55.638;37.670;2023-12-29T05:26:49;8.48;;;4.97;;
34200;SDS011;20469;55.638;37.670;2023-12-29T05:29:17;10.13;;;5.85;;
34200;SDS011;20469;55.638;37.670;2023-12-29T05:31:44;11.55;;;6.38;;
34200;SDS011;20469;55.638;37.670;2023-12-29T05:34:13;10.30;;;5.68;;
34200;SDS011;20469;55.638;37.670;2023-12-29T05:36:42;12.68;;;6.47;;
34200;SDS011;20469;55.638;37.670;2023-12-29T05:39:11;11.77;;;6.28;;
34200;SDS011;20469;55.638;37.670;2023-12-29T05:41:38;11.23;;;6.38;;
34200;SDS011;20469;55.638;37.670;2023-12-29T05:44:07;10.05;;;5.80;;
34200;SDS011;20469;55.638;37.670;2023-12-29T05:46:35;11.65;;;6.20;;
34200;SDS011;20469;55.638;37.670;2023-12-29T05:49:02;10.23;;;6.05;;
34200;SDS011;20469;55.638;37.670;2023-12-29T05:51:30;9.80;;;5.95;;
34200;SDS011;20469;55.638;37.670;2023-12-29T05:53:58;10.25;;;5.88;;
34200;SDS011;20469;55.638;37.670;2023-12-29T05:56:26;11.45;;;5.95;;
34200;SDS011;20469;55.638;37.670;2023-12-29T05:58:54;9.00;;;5.82;;
34200;SDS011;20469;55.638;37.670;2023-12-29T06:01:23;11.93;;;6.53;;
34200;SDS011;20469;55.638;37.670;2023-12-29T06:03:50;10.23;;;6.10;;
34200;SDS011;20469;55.638;37.670;2023-12-29T06:06:19;11.50;;;6.80;;
34200;SDS011;20469;55.638;37.670;2023-12-29T06:08:47;11.82;;;5.78;;
34200;SDS011;20469;55.638;37.670;2023-12-29T06:11:15;9.20;;;5.85;;
34200;SDS011;20469;55.638;37.670;2023-12-29T06:13:43;9.00;;;5.40;;
34200;SDS011;20469;55.638;37.670;2023-12-29T06:16:20;10.27;;;5.40;;
34200;SDS011;20469;55.638;37.670;2023-12-29T06:18:49;9.95;;;6.25;;
34200;SDS011;20469;55.638;37.670;2023-12-29T06:21:18;9.88;;;5.45;;
34200;SDS011;20469;55.638;37.670;2023-12-29T06:23:46;11.75;;;5.57;;
34200;SDS011;20469;55.638;37.670;2023-12-29T06:26:17;16.02;;;8.57;;
34200;SDS011;20469;55.638;37.670;2023-12-29T06:28:45;9.35;;;5.53;;
34200;SDS011;20469;55.638;37.670;2023-12-29T06:31:13;10.00;;;5.95;;
34200;SDS011;20469;55.638;37.670;2023-12-29T06:33:42;10.20;;;5.85;;
34200;SDS011;20469;55.638;37.670;2023-12-29T06:36:10;9.32;;;5.75;;
34200;SDS011;20469;55.638;37.670;2023-12-29T06:38:38;9.00;;;5.35;;
34200;SDS011;20469;55.638;37.670;2023-12-29T06:41:06;8.80;;;5.28;;
34200;SDS011;20469;55.638;37.670;2023-12-29T06:43:34;12.02;;;6.00;;
34200;SDS011;20469;55.638;37.670;2023-12-29T06:46:02;8.48;;;5.18;;
34200;SDS011;20469;55.638;37.670;2023-12-29T06:48:31;10.00;;;5.38;;
34200;SDS011;20469;55.638;37.670;2023-12-29T06:51:00;9.45;;;5.90;;
34200;SDS011;20469;55.638;37.670;2023-12-29T06:53:28;9.25;;;5.20;;
34200;SDS011;20469;55.638;37.670;2023-12-29T06:55:56;9.35;;;5.13;;
34200;SDS011;20469;55.638;37.670;2023-12-29T06:58:23;11.57;;;6.07;;
34200;SDS011;20469;55.638;37.670;2023-12-29T07:00:51;8.57;;;4.95;;
34200;SDS011;20469;55.638;37.670;2023-12-29T07:03:19;10.77;;;5.60;;
34200;SDS011;20469;55.638;37.670;2023-12-29T07:05:47;7.78;;;4.20;;
34200;SDS011;20469;55.638;37.670;2023-12-29T07:08:15;8.98;;;4.80;;
34200;SDS011;20469;55.638;37.670;2023-12-29T07:10:43;10.10;;;4.95;;
34200;SDS011;20469;55.638;37.670;2023-12-29T07:13:11;10.50;;;5.05;;
34200;SDS011;20469;55.638;37.670;2023-12-29T07:15:39;10.77;;;5.82;;
34200;SDS011;20469;55.638;37.670;2023-12-29T07:18:09;10.50;;;5.65;;
34200;SDS011;20469;55.638;37.670;2023-12-29T07:20:38;9.55;;;5.82;;
34200;SDS011;20469;55.638;37.670;2023-12-29T07:23:06;8.63;;;5.25;;
34200;SDS011;20469;55.638;37.670;2023-12-29T07:25:34;8.75;;;5.57;;
34200;SDS011;20469;55.638;37.670;2023-12-29T07:28:01;10.63;;;5.95;;
34200;SDS011;20469;55.638;37.670;2023-12-29T07:30:31;11.40;;;5.35;;
34200;SDS011;20469;55.638;37.670;2023-12-29T07:32:59;7.78;;;4.93;;
34200;SDS011;20469;55.638;37.670;2023-12-29T07:35:29;10.75;;;5.07;;
34200;SDS011;20469;55.638;37.670;2023-12-29T07:37:58;8.00;;;4.65;;
34200;SDS011;20469;55.638;37.670;2023-12-29T07:40:26;8.55;;;4.45;;
34200;SDS011;20469;55.638;37.670;2023-12-29T07:42:54;8.88;;;4.55;;
34200;SDS011;20469;55.638;37.670;2023-12-29T07:45:22;9.25;;;5.50;;
34200;SDS011;20469;55.638;37.670;2023-12-29T07:47:49;11.45;;;5.32;;
34200;SDS011;20469;55.638;37.670;2023-12-29T07:50:17;8.50;;;5.35;;
34200;SDS011;20469;55.638;37.670;2023-12-29T07:52:45;9.50;;;5.72;;
34200;SDS011;20469;55.638;37.670;2023-12-29T07:55:13;8.15;;;5.03;;
34200;SDS011;20469;55.638;37.670;2023-12-29T07:57:44;9.60;;;4.97;;
34200;SDS011;20469;55.638;37.670;2023-12-29T08:00:16;9.18;;;5.00;;
34200;SDS011;20469;55.638;37.670;2023-12-29T08:02:44;10.43;;;5.65;;
34200;SDS011;20469;55.638;37.670;2023-12-29T08:05:12;10.10;;;5.47;;
34200;SDS011;20469;55.638;37.670;2023-12-29T08:07:42;9.75;;;5.57;;
34200;SDS011;20469;55.638;37.670;2023-12-29T08:10:10;7.78;;;4.97;;
34200;SDS011;20469;55.638;37.670;2023-12-29T08:12:38;9.05;;;5.20;;
34200;SDS011;20469;55.638;37.670;2023-12-29T08:15:06;9.90;;;5.57;;
34200;SDS011;20469;55.638;37.670;2023-12-29T08:17:34;11.23;;;6.47;;
34200;SDS011;20469;55.638;37.670;2023-12-29T08:20:02;12.55;;;6.20;;
34200;SDS011;20469;55.638;37.670;2023-12-29T08:22:30;12.25;;;5.72;;
34200;SDS011;20469;55.638;37.670;2023-12-29T08:24:59;10.68;;;5.80;;
34200;SDS011;20469;55.638;37.670;2023-12-29T08:27:29;10.98;;;5.80;;
34200;SDS011;20469;55.638;37.670;2023-12-29T08:29:57;11.15;;;6.05;;
34200;SDS011;20469;55.638;37.670;2023-12-29T08:32:25;9.57;;;4.97;;
34200;SDS011;20469;55.638;37.670;2023-12-29T08:34:53;9.95;;;5.50;;
34200;SDS011;20469;55.638;37.670;2023-12-29T08:37:21;8.30;;;5.05;;
34200;SDS011;20469;55.638;37.670;2023-12-29T08:39:49;9.25;;;5.18;;
34200;SDS011;20469;55.638;37.670;2023-12-29T08:42:17;11.07;;;6.28;;
34200;SDS011;20469;55.638;37.670;2023-12-29T08:44:49;9.43;;;6.20;;
34200;SDS011;20469;55.638;37.670;2023-12-29T08:47:17;10.75;;;5.55;;
34200;SDS011;20469;55.638;37.670;2023-12-29T08:49:45;11.88;;;5.57;;
34200;SDS011;20469;55.638;37.670;2023-12-29T08:52:15;11.05;;;5.78;;
34200;SDS011;20469;55.638;37.670;2023-12-29T08:54:44;11.82;;;6.30;;
34200;SDS011;20469;55.638;37.670;2023-12-29T08:57:12;12.65;;;6.25;;
34200;SDS011;20469;55.638;37.670;2023-12-29T08:59:40;11.65;;;5.85;;
34200;SDS011;20469;55.638;37.670;2023-12-29T09:02:08;9.57;;;5.35;;
34200;SDS011;20469;55.638;37.670;2023-12-29T09:04:36;11.75;;;5.47;;
34200;SDS011;20469;55.638;37.670;2023-12-29T09:07:04;11.85;;;6.03;;
34200;SDS011;20469;55.638;37.670;2023-12-29T09:09:33;16.25;;;10.48;;
34200;SDS011;20469;55.638;37.670;2023-12-29T09:12:01;8.00;;;5.68;;
34200;SDS011;20469;55.638;37.670;2023-12-29T09:14:29;11.77;;;6.10;;
34200;SDS011;20469;55.638;37.670;2023-12-29T09:16:59;11.32;;;6.10;;
34200;SDS011;20469;55.638;37.670;2023-12-29T09:19:27;8.50;;;5.63;;
34200;SDS011;20469;55.638;37.670;2023-12-29T09:22:05;10.40;;;5.50;;
34200;SDS011;20469;55.638;37.670;2023-12-29T09:24:33;8.68;;;5.72;;
34200;SDS011;20469;55.638;37.670;2023-12-29T09:27:02;12.30;;;5.90;;
34200;SDS011;20469;55.638;37.670;2023-12-29T09:29:30;11.23;;;6.20;;
34200;SDS011;20469;55.638;37.670;2023-12-29T09:31:58;9.15;;;5.60;;
34200;SDS011;20469;55.638;37.670;2023-12-29T09:34:26;12.27;;;6.15;;
34200;SDS011;20469;55.638;37.670;2023-12-29T09:36:54;11.52;;;6.10;;
34200;SDS011;20469;55.638;37.670;2023-12-29T09:39:22;10.07;;;6.13;;
34200;SDS011;20469;55.638;37.670;2023-12-29T09:41:53;8.95;;;5.80;;
34200;SDS011;20469;55.638;37.670;2023-12-29T09:44:22;10.63;;;6.00;;
34200;SDS011;20469;55.638;37.670;2023-12-29T09:46:52;10.60;;;5.70;;
34200;SDS011;20469;55.638;37.670;2023-12-29T09:49:21;12.32;;;6.72;;
34200;SDS011;20469;55.638;37.670;2023-12-29T09:51:49;11.10;;;6.07;;
34200;SDS011;20469;55.638;37.670;2023-12-29T09:54:17;12.32;;;6.68;;
34200;SDS011;20469;55.638;37.670;2023-12-29T09:56:45;14.50;;;6.70;;
34200;SDS011;20469;55.638;37.670;2023-12-29T09:59:13;11.27;;;6.90;;
34200;SDS011;20469;55.638;37.670;2023-12-29T10:01:41;11.32;;;6.25;;
34200;SDS011;20469;55.638;37.670;2023-12-29T10:04:09;10.68;;;6.50;;
34200;SDS011;20469;55.638;37.670;2023-12-29T10:06:38;9.98;;;6.18;;
34200;SDS011;20469;55.638;37.670;2023-12-29T10:09:09;12.32;;;6.35;;
34200;SDS011;20469;55.638;37.670;2023-12-29T10:11:38;11.48;;;6.57;;
34200;SDS011;20469;55.638;37.670;2023-12-29T10:14:22;11.57;;;6.60;;
34200;SDS011;20469;55.638;37.670;2023-12-29T10:24:18;11.82;;;6.50;;
34200;SDS011;20469;55.638;37.670;2023-12-29T10:26:47;9.43;;;6.53;;
34200;SDS011;20469;55.638;37.670;2023-12-29T10:29:15;8.82;;;6.40;;
34200;SDS011;20469;55.638;37.670;2023-12-29T10:31:45;11.73;;;6.75;;
34200;SDS011;20469;55.638;37.670;2023-12-29T10:34:20;10.75;;;6.60;;
34200;SDS011;20469;55.638;37.670;2023-12-29T10:36:58;13.77;;;7.05;;
34200;SDS011;20469;55.638;37.670;2023-12-29T10:39:30;14.77;;;7.10;;
34200;SDS011;20469;55.638;37.670;2023-12-29T10:42:07;10.82;;;6.28;;
34200;SDS011;20469;55.638;37.670;2023-12-29T10:44:37;11.57;;;6.88;;
34200;SDS011;20469;55.638;37.670;2023-12-29T10:47:11;12.65;;;6.82;;
34200;SDS011;20469;55.638;37.670;2023-12-29T10:49:40;16.05;;;9.40;;
34200;SDS011;20469;55.638;37.670;2023-12-29T10:52:12;14.40;;;6.80;;
34200;SDS011;20469;55.638;37.670;2023-12-29T10:54:44;14.75;;;6.60;;
34200;SDS011;20469;55.638;37.670;2023-12-29T10:57:12;9.60;;;6.40;;
34200;SDS011;20469;55.638;37.670;2023-12-29T10:59:40;11.43;;;6.43;;
34200;SDS011;20469;55.638;37.670;2023-12-29T11:02:11;11.15;;;6.28;;
34200;SDS011;20469;55.638;37.670;2023-12-29T11:07:11;9.20;;;5.88;;
34200;SDS011;20469;55.638;37.670;2023-12-29T11:09:40;8.80;;;6.05;;
34200;SDS011;20469;55.638;37.670;2023-12-29T11:12:08;9.45;;;5.65;;
34200;SDS011;20469;55.638;37.670;2023-12-29T11:14:40;9.68;;;6.38;;
34200;SDS011;20469;55.638;37.670;2023-12-29T11:17:17;10.75;;;6.15;;
34200;SDS011;20469;55.638;37.670;2023-12-29T11:19:45;9.43;;;5.80;;
34200;SDS011;20469;55.638;37.670;2023-12-29T11:22:15;11.32;;;6.18;;
34200;SDS011;20469;55.638;37.670;2023-12-29T11:24:46;8.50;;;5.50;;
34200;SDS011;20469;55.638;37.670;2023-12-29T11:27:15;11.23;;;6.68;;
34200;SDS011;20469;55.638;37.670;2023-12-29T11:29:43;12.48;;;7.18;;
34200;SDS011;20469;55.638;37.670;2023-12-29T11:32:14;11.93;;;7.07;;
34200;SDS011;20469;55.638;37.670;2023-12-29T11:34:49;11.13;;;6.72;;
34200;SDS011;20469;55.638;37.670;2023-12-29T11:37:26;11.07;;;6.53;;
34200;SDS011;20469;55.638;37.670;2023-12-29T11:40:11;8.88;;;6.38;;
34200;SDS011;20469;55.638;37.670;2023-12-29T11:42:42;11.30;;;6.20;;
34200;SDS011;20469;55.638;37.670;2023-12-29T11:45:25;9.75;;;6.65;;
34200;SDS011;20469;55.638;37.670;2023-12-29T11:47:55;10.18;;;6.80;;
34200;SDS011;20469;55.638;37.670;2023-12-29T11:50:30;11.90;;;6.72;;
34200;SDS011;20469;55.638;37.670;2023-12-29T11:52:58;11.23;;;6.93;;
34200;SDS011;20469;55.638;37.670;2023-12-29T11:55:30;11.48;;;6.85;;
34200;SDS011;20469;55.638;37.670;2023-12-29T11:57:59;13.45;;;7.00;;
34200;SDS011;20469;55.638;37.670;2023-12-29T12:00:43;12.98;;;7.28;;
34200;SDS011;20469;55.638;37.670;2023-12-29T12:03:30;11.63;;;6.45;;
34200;SDS011;20469;55.638;37.670;2023-12-29T12:05:59;11.63;;;7.00;;
34200;SDS011;20469;55.638;37.670;2023-12-29T12:08:32;12.15;;;7.10;;
34200;SDS011;20469;55.638;37.670;2023-12-29T12:13:48;11.98;;;7.50;;
34200;SDS011;20469;55.638;37.670;2023-12-29T12:19:05;12.27;;;7.45;;
34200;SDS011;20469;55.638;37.670;2023-12-29T12:21:37;11.75;;;7.45;;
34200;SDS011;20469;55.638;37.670;2023-12-29T12:24:05;15.02;;;7.10;;
34200;SDS011;20469;55.638;37.670;2023-12-29T12:26:34;12.15;;;7.78;;
34200;SDS011;20469;55.638;37.670;2023-12-29T12:29:02;11.82;;;7.22;;
34200;SDS011;20469;55.638;37.670;2023-12-29T12:31:30;13.60;;;7.55;;
34200;SDS011;20469;55.638;37.670;2023-12-29T12:33:59;11.07;;;7.63;;
34200;SDS011;20469;55.638;37.670;2023-12-29T12:36:35;11.88;;;6.72;;
34200;SDS011;20469;55.638;37.670;2023-12-29T12:39:16;13.13;;;7.72;;
34200;SDS011;20469;55.638;37.670;2023-12-29T12:41:44;11.98;;;7.60;;
34200;SDS011;20469;55.638;37.670;2023-12-29T12:44:13;10.43;;;7.32;;
34200;SDS011;20469;55.638;37.670;2023-12-29T12:49:13;13.70;;;7.85;;
34200;SDS011;20469;55.638;37.670;2023-12-29T12:51:41;12.40;;;8.20;;
34200;SDS011;20469;55.638;37.670;2023-12-29T12:54:10;13.57;;;8.88;;
34200;SDS011;20469;55.638;37.670;2023-12-29T12:56:41;12.80;;;7.32;;
34200;SDS011;20469;55.638;37.670;2023-12-29T12:59:09;12.10;;;8.05;;
34200;SDS011;20469;55.638;37.670;2023-12-29T13:01:38;12.05;;;8.13;;
34200;SDS011;20469;55.638;37.670;2023-12-29T13:04:07;12.80;;;8.13;;
34200;SDS011;20469;55.638;37.670;2023-12-29T13:06:39;10.88;;;6.93;;
34200;SDS011;20469;55.638;37.670;2023-12-29T13:09:14;11.50;;;7.07;;
34200;SDS011;20469;55.638;37.670;2023-12-29T13:11:46;14.40;;;8.52;;
34200;SDS011;20469;55.638;37.670;2023-12-29T13:14:21;12.35;;;8.02;;
34200;SDS011;20469;55.638;37.670;2023-12-29T13:16:49;12.73;;;8.02;;
34200;SDS011;20469;55.638;37.670;2023-12-29T13:19:18;12.73;;;7.40;;
34200;SDS011;20469;55.638;37.670;2023-12-29T13:21:49;12.77;;;7.70;;
34200;SDS011;20469;55.638;37.670;2023-12-29T13:24:18;11.88;;;7.57;;
34200;SDS011;20469;55.638;37.670;2023-12-29T13:26:46;12.10;;;7.68;;
34200;SDS011;20469;55.638;37.670;2023-12-29T13:29:22;13.48;;;8.15;;
34200;SDS011;20469;55.638;37.670;2023-12-29T13:39:44;11.25;;;7.45;;
34200;SDS011;20469;55.638;37.670;2023-12-29T13:42:14;12.88;;;7.65;;
34200;SDS011;20469;55.638;37.670;2023-12-29T13:44:43;10.82;;;7.72;;
34200;SDS011;20469;55.638;37.670;2023-12-29T13:47:11;14.27;;;8.20;;
34200;SDS011;20469;55.638;37.670;2023-12-29T13:49:40;14.43;;;10.27;;
34200;SDS011;20469;55.638;37.670;2023-12-29T13:52:10;11.93;;;7.72;;
34200;SDS011;20469;55.638;37.670;2023-12-29T13:54:41;13.77;;;8.10;;
34200;SDS011;20469;55.638;37.670;2023-12-29T13:57:10;16.02;;;8.18;;
34200;SDS011;20469;55.638;37.670;2023-12-29T13:59:39;11.80;;;8.40;;
34200;SDS011;20469;55.638;37.670;2023-12-29T14:07:48;15.05;;;9.38;;
34200;SDS011;20469;55.638;37.670;2023-12-29T14:10:19;14.52;;;10.68;;
34200;SDS011;20469;55.638;37.670;2023-12-29T14:12:48;13.63;;;8.98;;
34200;SDS011;20469;55.638;37.670;2023-12-29T14:15:15;14.05;;;9.13;;
34200;SDS011;20469;55.638;37.670;2023-12-29T14:17:43;14.15;;;9.02;;
34200;SDS011;20469;55.638;37.670;2023-12-29T14:20:12;14.00;;;9.13;;
34200;SDS011;20469;55.638;37.670;2023-12-29T14:23:01;15.27;;;9.40;;
34200;SDS011;20469;55.638;37.670;2023-12-29T14:25:29;15.70;;;10.02;;
34200;SDS011;20469;55.638;37.670;2023-12-29T14:28:01;15.70;;;9.52;;
34200;SDS011;20469;55.638;37.670;2023-12-29T14:30:29;21.63;;;14.25;;
34200;SDS011;20469;55.638;37.670;2023-12-29T14:32:58;17.48;;;10.50;;
34200;SDS011;20469;55.638;37.670;2023-12-29T14:35:26;17.63;;;9.82;;
34200;SDS011;20469;55.638;37.670;2023-12-29T14:37:56;16.38;;;9.15;;
34200;SDS011;20469;55.638;37.670;2023-12-29T14:40:24;16.33;;;9.82;;
34200;SDS011;20469;55.638;37.670;2023-12-29T14:42:52;16.02;;;9.77;;
34200;SDS011;20469;55.638;37.670;2023-12-29T14:45:19;17.20;;;10.07;;
34200;SDS011;20469;55.638;37.670;2023-12-29T14:47:47;15.75;;;8.75;;
34200;SDS011;20469;55.638;37.670;2023-12-29T14:50:18;17.95;;;9.75;;
34200;SDS011;20469;55.638;37.670;2023-12-29T14:52:51;16.45;;;10.50;;
34200;SDS011;20469;55.638;37.670;2023-12-29T14:55:19;18.15;;;10.73;;
34200;SDS011;20469;55.638;37.670;2023-12-29T14:57:48;19.13;;;11.05;;
34200;SDS011;20469;55.638;37.670;2023-12-29T15:00:16;17.95;;;10.88;;
34200;SDS011;20469;55.638;37.670;2023-12-29T15:02:44;15.38;;;10.27;;
34200;SDS011;20469;55.638;37.670;2023-12-29T15:05:12;17.50;;;11.15;;
34200;SDS011;20469;55.638;37.670;2023-12-29T15:07:40;17.83;;;11.98;;
34200;SDS011;20469;55.638;37.670;2023-12-29T15:10:08;18.60;;;11.27;;
34200;SDS011;20469;55.638;37.670;2023-12-29T15:12:37;17.77;;;10.75;;
34200;SDS011;20469;55.638;37.670;2023-12-29T15:15:08;18.45;;;11.50;;
34200;SDS011;20469;55.638;37.670;2023-12-29T15:17:37;17.25;;;10.70;;